createdAt,value
2022-12-31T00:02:14.950Z,12.75
2022-12-31T00:04:41.623Z,12.78
2022-12-31T00:07:08.168Z,12.78
2022-12-31T00:09:34.594Z,12.84
2022-12-31T00:12:01.041Z,12.84
2022-12-31T00:14:27.667Z,12.92
2022-12-31T00:16:54.083Z,12.91
2022-12-31T00:19:20.551Z,12.88
2022-12-31T00:21:46.928Z,12.89
2022-12-31T00:24:13.355Z,12.91
2022-12-31T00:26:39.805Z,12.96
2022-12-31T00:29:06.369Z,12.96
2022-12-31T00:31:36.452Z,12.93
2022-12-31T00:34:03.663Z,12.99
2022-12-31T00:36:35.470Z,13.06
2022-12-31T00:39:03.426Z,13.09
2022-12-31T00:41:32.392Z,13.12
2022-12-31T00:43:59.382Z,13.16
2022-12-31T00:46:26.900Z,13.18
2022-12-31T00:48:54.084Z,13.15
2022-12-31T00:51:22.910Z,13.11
2022-12-31T00:53:50.038Z,13.02
2022-12-31T00:56:20.189Z,13.02
2022-12-31T01:00:36.941Z,13.03
2022-12-31T01:03:04.153Z,13.09
2022-12-31T01:05:31.984Z,13.18
2022-12-31T01:07:58.548Z,13.20
2022-12-31T01:10:54.795Z,13.27
2022-12-31T01:13:21.672Z,13.36
2022-12-31T01:15:48.179Z,13.44
2022-12-31T01:18:16.189Z,13.46
2022-12-31T01:20:44.312Z,13.48
2022-12-31T01:23:14.319Z,13.56
2022-12-31T01:25:41.936Z,13.63
2022-12-31T01:28:09.533Z,13.65
2022-12-31T01:30:40.007Z,13.70
2022-12-31T01:33:06.674Z,13.67
2022-12-31T01:35:35.271Z,13.67
2022-12-31T01:38:04.541Z,13.75
2022-12-31T01:40:31.026Z,13.74
2022-12-31T01:42:58.269Z,13.84
2022-12-31T01:45:25.167Z,13.84
2022-12-31T01:47:59.513Z,13.90
2022-12-31T01:50:33.486Z,14.00
2022-12-31T01:53:04.718Z,14.04
2022-12-31T01:55:36.444Z,14.12
2022-12-31T01:58:18.108Z,14.11
2022-12-31T02:00:45.074Z,14.22
2022-12-31T02:03:13.416Z,14.26
2022-12-31T02:05:46.886Z,14.46
2022-12-31T02:08:14.168Z,14.52
2022-12-31T02:10:41.845Z,14.55
2022-12-31T02:13:08.663Z,14.59
2022-12-31T02:15:59.416Z,14.60
2022-12-31T02:19:14.734Z,14.60
2022-12-31T02:22:14.268Z,14.59
2022-12-31T02:24:55.771Z,14.69
2022-12-31T02:27:42.413Z,14.72
2022-12-31T02:30:25.506Z,14.88
2022-12-31T02:33:03.542Z,14.94
2022-12-31T02:35:37.859Z,14.88
2022-12-31T02:38:10.486Z,15.11
2022-12-31T02:40:38.531Z,15.05
2022-12-31T02:43:05.045Z,15.12
2022-12-31T02:45:40.513Z,15.24
2022-12-31T02:48:31.565Z,15.20
2022-12-31T02:51:12.243Z,15.49
2022-12-31T02:54:06.125Z,15.53
2022-12-31T02:57:22.194Z,15.61
2022-12-31T03:00:16.140Z,15.91
2022-12-31T03:02:45.654Z,16.09
2022-12-31T03:05:14.889Z,16.07
2022-12-31T03:07:42.849Z,16.18
2022-12-31T03:10:10.103Z,16.18
2022-12-31T03:12:49.668Z,16.32
2022-12-31T03:15:26.422Z,16.24
2022-12-31T03:18:03.881Z,16.40
2022-12-31T03:20:56.020Z,16.37
2022-12-31T03:23:29.986Z,16.41
2022-12-31T03:26:00.462Z,16.52
2022-12-31T03:28:29.580Z,16.42
2022-12-31T03:31:01.366Z,16.47
2022-12-31T03:33:37.628Z,16.47
2022-12-31T03:36:07.542Z,16.51
2022-12-31T03:38:34.248Z,16.52
2022-12-31T03:41:00.733Z,16.45
2022-12-31T03:43:27.429Z,16.47
2022-12-31T03:45:54.795Z,16.38
2022-12-31T03:48:27.253Z,16.42
2022-12-31T03:50:53.685Z,16.38
2022-12-31T03:53:20.590Z,16.42
2022-12-31T03:55:51.858Z,16.30
2022-12-31T03:58:18.558Z,16.24
2022-12-31T04:00:45.272Z,16.18
2022-12-31T04:03:11.954Z,16.11
2022-12-31T04:05:38.614Z,16.06
2022-12-31T04:08:06.467Z,16.22
2022-12-31T04:10:33.060Z,16.22
2022-12-31T04:13:02.568Z,16.24
2022-12-31T04:15:29.015Z,16.16
2022-12-31T04:17:55.489Z,16.32
2022-12-31T04:20:22.256Z,16.31
2022-12-31T04:22:51.170Z,16.27
2022-12-31T04:25:17.687Z,16.28
2022-12-31T04:27:44.364Z,16.34
2022-12-31T04:30:13.257Z,16.35
2022-12-31T04:32:40.204Z,16.37
2022-12-31T04:35:09.428Z,16.30
2022-12-31T04:37:36.108Z,16.42
2022-12-31T04:40:06.508Z,16.41
2022-12-31T04:42:34.352Z,16.28
2022-12-31T04:45:00.992Z,16.31
2022-12-31T04:47:29.207Z,16.40
2022-12-31T04:49:56.008Z,16.48
2022-12-31T04:52:23.172Z,16.55
2022-12-31T04:54:49.635Z,16.58
2022-12-31T04:57:16.402Z,16.58
2022-12-31T04:59:43.010Z,16.59
2022-12-31T05:02:09.911Z,16.55
2022-12-31T05:04:36.493Z,16.61
2022-12-31T05:07:03.127Z,16.72
2022-12-31T05:09:29.778Z,16.75
2022-12-31T05:11:56.569Z,16.79
2022-12-31T05:14:24.490Z,17.06
2022-12-31T05:16:52.439Z,16.96
2022-12-31T05:19:27.898Z,17.00
2022-12-31T05:22:12.976Z,17.04
2022-12-31T05:24:39.519Z,17.38
2022-12-31T05:27:06.072Z,17.33
2022-12-31T05:29:32.548Z,17.33
2022-12-31T05:31:59.053Z,17.29
2022-12-31T05:34:25.653Z,17.34
2022-12-31T05:36:52.693Z,17.38
2022-12-31T05:39:19.302Z,17.57
2022-12-31T05:41:45.981Z,17.58
2022-12-31T05:44:16.838Z,17.74
2022-12-31T05:46:43.333Z,17.58
2022-12-31T05:49:09.867Z,17.72
2022-12-31T05:51:43.781Z,17.71
2022-12-31T05:54:10.481Z,17.74
2022-12-31T05:56:37.147Z,17.91
2022-12-31T05:59:06.249Z,17.89
2022-12-31T06:01:33.185Z,17.81
2022-12-31T06:04:01.941Z,17.85
2022-12-31T06:06:28.437Z,17.65
2022-12-31T06:08:55.064Z,17.65
2022-12-31T06:11:21.819Z,17.71
2022-12-31T06:13:48.497Z,17.81
2022-12-31T06:16:15.090Z,17.72
2022-12-31T06:18:41.654Z,17.77
2022-12-31T06:21:08.745Z,17.77
2022-12-31T06:23:35.653Z,17.65
2022-12-31T06:26:05.900Z,17.65
2022-12-31T06:28:35.560Z,17.59
2022-12-31T06:31:03.958Z,17.57
2022-12-31T06:33:33.586Z,17.58
2022-12-31T06:36:02.919Z,17.57
2022-12-31T06:38:32.856Z,17.59
2022-12-31T06:41:03.700Z,17.44
2022-12-31T06:43:30.223Z,17.48
2022-12-31T06:46:00.941Z,17.46
2022-12-31T06:48:27.404Z,17.50
2022-12-31T06:50:53.927Z,17.43
2022-12-31T06:53:20.370Z,17.44
2022-12-31T06:55:48.783Z,17.36
2022-12-31T06:58:16.606Z,17.37
2022-12-31T07:00:53.999Z,17.51
2022-12-31T07:03:48.636Z,17.53
2022-12-31T07:06:17.248Z,17.47
2022-12-31T07:08:43.816Z,17.59
2022-12-31T07:11:23.396Z,17.58
2022-12-31T07:13:58.765Z,17.74
2022-12-31T07:16:30.955Z,17.64
2022-12-31T07:19:22.052Z,17.67
2022-12-31T07:21:50.981Z,17.64
2022-12-31T07:24:17.932Z,17.77
2022-12-31T07:27:08.992Z,17.69
2022-12-31T07:32:57.652Z,17.79
2022-12-31T07:35:43.371Z,17.88
2022-12-31T07:38:18.984Z,17.91
2022-12-31T07:41:09.439Z,17.96
2022-12-31T07:43:55.760Z,17.94
2022-12-31T07:46:43.917Z,17.89
2022-12-31T07:49:12.393Z,17.72
2022-12-31T07:51:39.774Z,17.69
2022-12-31T07:54:13.378Z,17.55
2022-12-31T07:56:40.876Z,17.50
2022-12-31T07:59:30.721Z,17.44
2022-12-31T08:02:05.313Z,17.44
2022-12-31T08:04:45.113Z,17.74
2022-12-31T08:07:22.564Z,17.72
2022-12-31T08:09:56.498Z,17.72
2022-12-31T08:12:24.522Z,17.62
2022-12-31T08:14:51.253Z,17.64
2022-12-31T08:17:19.618Z,17.54
2022-12-31T08:19:46.623Z,17.65
2022-12-31T08:22:41.287Z,17.69
2022-12-31T08:25:19.743Z,17.69
2022-12-31T08:28:13.930Z,17.67
2022-12-31T08:31:08.617Z,17.59
2022-12-31T08:34:00.719Z,17.58
2022-12-31T08:36:50.395Z,17.69
2022-12-31T08:39:38.174Z,17.71
2022-12-31T08:42:25.658Z,17.72
2022-12-31T08:45:13.512Z,17.68
2022-12-31T08:48:04.489Z,17.67
2022-12-31T08:50:31.625Z,17.77
2022-12-31T08:52:58.681Z,17.71
2022-12-31T08:55:25.570Z,17.86
2022-12-31T08:57:56.335Z,17.75
2022-12-31T09:00:23.247Z,17.74
2022-12-31T09:02:58.163Z,17.81
2022-12-31T09:05:39.547Z,17.72
2022-12-31T09:08:37.153Z,17.79
2022-12-31T09:11:10.752Z,17.81
2022-12-31T09:14:01.652Z,17.82
2022-12-31T09:16:58.697Z,17.74
2022-12-31T09:19:25.252Z,17.81
2022-12-31T09:21:52.761Z,17.86
2022-12-31T09:24:19.461Z,17.88
2022-12-31T09:26:54.757Z,17.92
2022-12-31T09:29:39.742Z,17.88
2022-12-31T09:32:29.368Z,17.91
2022-12-31T09:35:22.302Z,17.99
2022-12-31T09:37:51.542Z,18.26
2022-12-31T09:40:39.839Z,18.41
2022-12-31T09:43:30.042Z,18.33
2022-12-31T09:46:25.755Z,18.34
2022-12-31T09:49:29.957Z,18.37
2022-12-31T09:52:21.082Z,18.48
2022-12-31T09:54:54.197Z,18.66
2022-12-31T09:57:47.959Z,18.50
2022-12-31T10:00:23.893Z,18.51
2022-12-31T10:03:15.087Z,18.51
2022-12-31T10:05:59.699Z,18.57
2022-12-31T10:09:01.421Z,18.54
2022-12-31T10:12:06.225Z,18.56
2022-12-31T10:15:00.826Z,18.44
2022-12-31T10:17:48.437Z,18.51
2022-12-31T10:20:45.160Z,18.53
2022-12-31T10:23:37.808Z,18.54
2022-12-31T10:26:18.508Z,18.61
2022-12-31T10:28:59.666Z,18.54
2022-12-31T10:31:38.781Z,18.56
2022-12-31T10:34:25.781Z,18.58
2022-12-31T10:37:06.264Z,18.60
2022-12-31T10:40:11.814Z,18.57
2022-12-31T10:43:09.268Z,18.54
2022-12-31T10:45:50.807Z,18.48
2022-12-31T10:48:48.347Z,18.53
2022-12-31T10:51:32.269Z,18.60
2022-12-31T10:54:48.271Z,18.60
2022-12-31T10:57:49.993Z,18.57
2022-12-31T11:00:22.694Z,18.58
2022-12-31T11:03:13.322Z,18.60
2022-12-31T11:05:56.558Z,18.58
2022-12-31T11:08:55.198Z,18.68
2022-12-31T11:11:45.828Z,18.64
2022-12-31T11:14:49.715Z,18.54
2022-12-31T11:17:38.167Z,18.53
2022-12-31T11:20:28.324Z,18.51
2022-12-31T11:23:16.362Z,18.58
2022-12-31T11:26:05.046Z,18.57
2022-12-31T11:28:43.773Z,18.63
2022-12-31T11:31:22.400Z,18.63
2022-12-31T11:34:26.635Z,18.70
2022-12-31T11:37:27.456Z,18.70
2022-12-31T11:40:28.783Z,18.71
2022-12-31T11:43:11.004Z,18.74
2022-12-31T11:45:50.276Z,18.75
2022-12-31T11:48:30.527Z,18.80
2022-12-31T11:51:04.066Z,18.85
2022-12-31T11:53:39.652Z,18.73
2022-12-31T11:56:19.956Z,18.81
2022-12-31T11:58:50.141Z,18.67
2022-12-31T12:01:36.150Z,18.58
2022-12-31T12:04:03.584Z,18.54
2022-12-31T12:06:32.317Z,18.57
2022-12-31T12:09:10.412Z,18.51
2022-12-31T12:11:40.017Z,18.56
2022-12-31T12:14:40.149Z,18.56
2022-12-31T12:17:09.245Z,18.39
2022-12-31T12:19:44.482Z,18.33
2022-12-31T12:22:23.803Z,18.36
2022-12-31T12:25:07.061Z,18.32
2022-12-31T12:27:35.796Z,18.32
2022-12-31T12:30:11.513Z,18.22
2022-12-31T12:32:38.344Z,18.23
2022-12-31T12:35:16.414Z,18.20
2022-12-31T12:37:42.861Z,18.19
2022-12-31T12:40:20.009Z,18.13
2022-12-31T12:42:48.743Z,18.12
2022-12-31T12:45:18.759Z,18.44
2022-12-31T12:47:48.131Z,18.25
2022-12-31T12:50:21.791Z,18.19
2022-12-31T12:53:14.270Z,18.13
2022-12-31T12:55:59.414Z,18.05
2022-12-31T12:58:47.649Z,18.09
2022-12-31T13:01:19.976Z,18.05
2022-12-31T13:04:33.608Z,18.17
2022-12-31T13:07:13.095Z,18.32
2022-12-31T13:10:17.851Z,18.26
2022-12-31T13:15:58.186Z,18.89
2022-12-31T13:18:39.980Z,18.80
2022-12-31T13:21:44.323Z,18.63
2022-12-31T13:24:29.356Z,18.16
2022-12-31T13:27:23.536Z,18.06
2022-12-31T13:29:50.595Z,17.57
2022-12-31T13:32:21.915Z,17.61
2022-12-31T13:34:53.662Z,17.53
2022-12-31T13:37:31.783Z,17.21
2022-12-31T13:40:05.336Z,17.31
2022-12-31T13:42:41.411Z,16.99
2022-12-31T13:45:16.945Z,16.93
2022-12-31T13:47:54.079Z,16.78
2022-12-31T13:50:26.191Z,16.90
2022-12-31T13:53:07.084Z,16.48
2022-12-31T13:55:40.093Z,16.32
2022-12-31T13:58:21.323Z,16.14
2022-12-31T14:00:53.341Z,15.93
2022-12-31T14:03:27.689Z,15.70
2022-12-31T14:06:03.171Z,15.99
2022-12-31T14:08:29.777Z,15.93
2022-12-31T14:11:02.086Z,16.07
2022-12-31T14:13:38.541Z,15.87
2022-12-31T14:16:29.838Z,16.04
2022-12-31T14:18:56.638Z,15.89
2022-12-31T14:22:05.877Z,15.91
2022-12-31T14:24:46.208Z,16.09
2022-12-31T14:27:20.592Z,16.06
2022-12-31T14:29:57.051Z,16.04
2022-12-31T14:32:53.794Z,16.09
2022-12-31T14:35:23.068Z,16.04
2022-12-31T14:38:00.170Z,16.06
2022-12-31T14:40:53.101Z,16.03
2022-12-31T14:43:44.246Z,16.03
2022-12-31T14:46:33.620Z,16.01
2022-12-31T14:49:14.633Z,16.06
2022-12-31T14:51:41.587Z,16.16
2022-12-31T14:54:29.541Z,16.13
2022-12-31T14:56:56.056Z,16.42
2022-12-31T14:59:28.905Z,16.45
2022-12-31T15:01:58.030Z,16.54
2022-12-31T15:04:45.401Z,16.65
2022-12-31T15:07:30.651Z,16.67
2022-12-31T15:10:29.929Z,16.69
2022-12-31T15:13:06.234Z,16.64
2022-12-31T15:16:14.123Z,16.64
2022-12-31T15:18:48.337Z,16.61
2022-12-31T15:21:33.254Z,16.82
2022-12-31T15:24:00.247Z,16.98
2022-12-31T15:26:31.934Z,17.00
2022-12-31T15:29:07.926Z,17.09
2022-12-31T15:31:36.416Z,17.06
2022-12-31T15:34:07.078Z,17.09
2022-12-31T15:36:38.967Z,17.16
2022-12-31T15:39:11.301Z,17.07
2022-12-31T15:42:03.068Z,17.11
2022-12-31T15:44:55.431Z,16.90
2022-12-31T15:47:33.277Z,16.93
2022-12-31T15:50:04.231Z,17.00
2022-12-31T15:52:41.701Z,16.88
2022-12-31T15:55:20.569Z,16.89
2022-12-31T15:57:47.820Z,16.96
2022-12-31T16:00:23.382Z,16.92
2022-12-31T16:02:54.821Z,16.83
2022-12-31T16:05:26.575Z,16.71
2022-12-31T16:07:57.920Z,16.73
2022-12-31T16:10:28.170Z,16.71
2022-12-31T16:12:57.354Z,16.67
2022-12-31T16:15:27.399Z,16.65
2022-12-31T16:18:05.985Z,16.68
2022-12-31T16:20:40.414Z,16.65
2022-12-31T16:23:21.388Z,16.57
2022-12-31T16:25:52.032Z,16.72
2022-12-31T16:28:21.923Z,16.64
2022-12-31T16:31:03.100Z,16.65
2022-12-31T16:33:31.248Z,16.59
2022-12-31T16:36:00.632Z,16.61
2022-12-31T16:38:37.773Z,16.51
2022-12-31T16:41:19.863Z,16.54
2022-12-31T16:43:49.430Z,16.47
2022-12-31T16:46:32.026Z,16.45
2022-12-31T16:49:08.068Z,16.57
2022-12-31T16:51:37.448Z,16.48
2022-12-31T16:54:04.816Z,16.47
2022-12-31T16:56:39.301Z,16.49
2022-12-31T16:59:28.194Z,16.58
2022-12-31T17:02:01.823Z,16.47
2022-12-31T17:04:29.917Z,16.42
2022-12-31T17:07:31.659Z,16.47
2022-12-31T17:10:13.079Z,16.41
2022-12-31T17:15:42.058Z,16.44
2022-12-31T17:18:22.525Z,16.28
2022-12-31T17:20:53.847Z,16.30
2022-12-31T17:23:28.704Z,16.31
2022-12-31T17:26:12.821Z,16.28
2022-12-31T17:28:47.490Z,16.20
2022-12-31T17:31:33.283Z,16.25
2022-12-31T17:34:15.158Z,16.25
2022-12-31T17:36:54.743Z,16.24
2022-12-31T17:39:23.587Z,16.13
2022-12-31T17:41:52.658Z,16.13
2022-12-31T17:44:25.736Z,16.17
2022-12-31T17:46:55.686Z,16.17
2022-12-31T17:49:27.207Z,16.10
2022-12-31T17:51:56.461Z,16.07
2022-12-31T17:54:23.213Z,16.04
2022-12-31T17:56:51.511Z,16.13
2022-12-31T17:59:22.569Z,16.17
2022-12-31T18:01:49.551Z,16.10
2022-12-31T18:04:19.060Z,16.01
2022-12-31T18:06:45.569Z,15.96
2022-12-31T18:09:12.067Z,16.00
2022-12-31T18:11:40.839Z,16.01
2022-12-31T18:14:07.545Z,16.07
2022-12-31T18:16:34.370Z,16.04
2022-12-31T18:19:01.475Z,15.97
2022-12-31T18:21:29.574Z,15.99
2022-12-31T18:26:23.476Z,15.94
2022-12-31T18:28:50.691Z,15.91
2022-12-31T18:31:25.665Z,15.89
2022-12-31T18:33:53.488Z,15.93
2022-12-31T18:36:21.761Z,16.04
2022-12-31T18:38:48.603Z,16.00
2022-12-31T18:41:21.699Z,16.01
2022-12-31T18:43:48.505Z,16.09
2022-12-31T18:46:18.361Z,15.96
2022-12-31T18:48:45.094Z,15.86
2022-12-31T18:51:19.912Z,15.94
2022-12-31T18:53:46.377Z,15.94
2022-12-31T18:57:36.018Z,15.89
2022-12-31T19:00:02.599Z,15.79
2022-12-31T19:02:29.111Z,15.87
2022-12-31T19:04:58.661Z,15.91
2022-12-31T19:07:25.150Z,16.00
2022-12-31T19:09:58.130Z,15.87
2022-12-31T19:12:24.940Z,15.83
2022-12-31T19:14:51.480Z,15.74
2022-12-31T19:17:18.796Z,15.69
2022-12-31T19:19:48.115Z,15.70
2022-12-31T19:22:18.009Z,15.74
2022-12-31T19:24:45.019Z,15.76
2022-12-31T19:27:11.709Z,15.74
2022-12-31T19:29:38.555Z,15.77
2022-12-31T19:32:07.943Z,15.72
2022-12-31T19:34:34.421Z,15.77
2022-12-31T19:37:00.901Z,15.77
2022-12-31T19:39:27.495Z,15.77
2022-12-31T19:41:58.757Z,15.69
2022-12-31T19:44:26.926Z,15.66
2022-12-31T19:46:53.481Z,15.77
2022-12-31T19:49:20.127Z,15.69
2022-12-31T19:51:46.698Z,15.58
2022-12-31T19:54:13.714Z,15.58
2022-12-31T19:56:40.401Z,15.59
2022-12-31T19:59:08.333Z,15.56
2022-12-31T20:01:34.882Z,15.58
2022-12-31T20:04:01.909Z,15.67
2022-12-31T20:06:28.551Z,15.66
2022-12-31T20:08:55.232Z,15.67
2022-12-31T20:11:23.825Z,15.61
2022-12-31T20:13:54.300Z,15.55
2022-12-31T20:16:24.630Z,15.53
2022-12-31T20:18:51.470Z,15.63
2022-12-31T20:21:21.794Z,15.65
2022-12-31T20:23:49.657Z,15.46
2022-12-31T20:26:16.702Z,15.56
2022-12-31T20:28:43.170Z,15.53
2022-12-31T20:31:15.711Z,15.51
2022-12-31T20:33:43.137Z,15.53
2022-12-31T20:36:13.123Z,15.52
2022-12-31T20:38:39.756Z,15.46
2022-12-31T20:41:11.523Z,15.46
2022-12-31T20:43:38.735Z,15.46
2022-12-31T20:46:18.930Z,15.36
2022-12-31T20:48:46.712Z,15.25
2022-12-31T20:51:14.992Z,15.24
2022-12-31T20:53:47.605Z,15.31
2022-12-31T20:56:15.480Z,15.21
2022-12-31T20:58:42.284Z,15.24
2022-12-31T21:01:12.966Z,15.20
2022-12-31T21:06:28.987Z,15.28
2022-12-31T21:08:57.212Z,15.32
2022-12-31T21:11:42.697Z,15.32
2022-12-31T21:14:09.387Z,15.41
2022-12-31T21:16:36.030Z,15.59
2022-12-31T21:19:02.717Z,15.49
2022-12-31T21:21:29.274Z,15.49
2022-12-31T21:23:55.779Z,15.46
2022-12-31T21:26:22.258Z,15.36
2022-12-31T21:28:48.764Z,15.30
2022-12-31T21:31:15.629Z,15.30
2022-12-31T21:33:47.033Z,15.25
2022-12-31T21:36:14.832Z,15.27
2022-12-31T21:38:41.495Z,15.11
2022-12-31T21:41:09.057Z,15.24
2022-12-31T21:43:35.728Z,15.12
2022-12-31T21:46:07.439Z,14.95
2022-12-31T21:48:34.102Z,14.98
2022-12-31T21:51:15.868Z,14.93
2022-12-31T21:53:42.398Z,14.88
2022-12-31T21:56:09.751Z,14.83
2022-12-31T21:58:38.206Z,14.79
2022-12-31T22:01:31.825Z,14.83
2022-12-31T22:04:01.254Z,14.84
2022-12-31T22:06:28.185Z,14.97
2022-12-31T22:08:56.129Z,14.94
2022-12-31T22:11:25.857Z,15.01
2022-12-31T22:13:53.358Z,15.03
2022-12-31T22:16:21.855Z,15.10
2022-12-31T22:18:48.927Z,15.14
2022-12-31T22:21:21.026Z,15.15
2022-12-31T22:23:53.273Z,15.22
2022-12-31T22:26:23.430Z,15.24
2022-12-31T22:28:50.671Z,15.28
2022-12-31T22:31:20.583Z,15.35
2022-12-31T22:33:47.602Z,15.38
2022-12-31T22:36:19.109Z,15.53
2022-12-31T22:38:46.225Z,15.52
2022-12-31T22:41:18.661Z,15.56
2022-12-31T22:43:58.654Z,15.66
2022-12-31T22:46:29.216Z,15.74
2022-12-31T22:48:58.538Z,15.76
2022-12-31T22:51:26.376Z,15.74
2022-12-31T22:53:55.933Z,15.77
2022-12-31T22:56:22.991Z,15.74
2022-12-31T22:58:49.606Z,15.80
2022-12-31T23:01:19.184Z,15.80
2022-12-31T23:03:47.245Z,15.79
2022-12-31T23:06:14.193Z,15.76
2022-12-31T23:08:40.787Z,15.74
2022-12-31T23:11:09.666Z,15.70
2022-12-31T23:13:59.842Z,15.79
2022-12-31T23:16:47.461Z,15.69
2022-12-31T23:19:33.860Z,15.70
2022-12-31T23:22:19.367Z,15.72
2022-12-31T23:24:45.866Z,15.82
2022-12-31T23:27:15.726Z,15.93
2022-12-31T23:29:47.121Z,15.94
2022-12-31T23:32:16.355Z,15.96
2022-12-31T23:34:45.595Z,16.06
2022-12-31T23:37:15.383Z,16.04
2022-12-31T23:39:42.662Z,15.90
2022-12-31T23:42:09.448Z,15.90
2022-12-31T23:44:35.914Z,15.96
2022-12-31T23:47:02.620Z,16.04
2022-12-31T23:49:29.187Z,16.06
2022-12-31T23:51:55.627Z,16.10
2022-12-31T23:54:22.180Z,16.07
2022-12-31T23:56:48.668Z,16.01
2022-12-31T23:59:15.433Z,15.99
